Flight Track Log - Related Links

Times and Time Zones

All times are in EDT time to prevent confusion due to time zone crossing. See the N45EJ flight status page for this flight to view local times or setup timezone preferences in your user account.


Time Position Orientation Groundspeed Altitude Reporting Facility
EDT Latitude Longitude Course Direction KTS MPH feet Rate Location/Type
Fri 08:12:25 PM 42.0925 -87.8753 32° Northeast 187 215 1,700  Level Chicago Center
Fri 08:13:27 PM 42.1356 -87.8394 32° Northeast 194 223 2,000 629 Climbing Chicago Center
Fri 08:14:29 PM 42.2031 -87.8164 14° North 234 269 3,000 1,968 Climbing Chicago Center
Fri 08:15:32 PM 42.2850 -87.7886 14° North 295 339 6,100 3,312 Climbing Chicago Center
Fri 08:16:34 PM 42.3725 -87.7892 360° North 289 333 9,900 3,194 Climbing Chicago Center
Fri 08:17:36 PM 42.4514 -87.7836 North 285 328 12,700 2,565 Climbing Chicago Center
Fri 08:18:38 PM 42.5358 -87.7717 North 308 354 15,200 2,419 Climbing Chicago Center
Fri 08:19:40 PM 42.6392 -87.7203 20° North 330 380 17,700 2,129 Climbing Chicago Center
Fri 08:20:42 PM 42.7283 -87.6719 22° Northeast 343 395 19,600 1,839 Climbing Chicago Center
Fri 08:21:44 PM 42.8239 -87.6200 22° Northeast 365 420 21,500 1,645 Climbing Chicago Center
Fri 08:22:46 PM 42.9181 -87.5547 27° Northeast 381 438 23,000 726 Climbing Chicago Center
Fri 08:23:48 PM 43.0122 -87.4528 38° Northeast 426 490 23,000  Level Chicago Center
Fri 08:24:50 PM 43.1156 -87.3458 37° Northeast 435 501 23,000  Level Chicago Center
Fri 08:25:52 PM 43.2144 -87.2450 37° Northeast 441 507 23,000  Level Chicago Center
Fri 08:26:54 PM 43.3125 -87.1411 38° Northeast 442 509 23,000  Level Chicago Center
Fri 08:27:57 PM 43.4125 -87.0356 37° Northeast 450 518 23,000  Level Chicago Center
Fri 08:28:59 PM 43.5328 -86.9089 37° Northeast 453 521 23,000  Level Chicago Center
Fri 08:30:01 PM 43.6328 -86.7994 38° Northeast 457 526 23,000 -63 Level Chicago Center
Fri 08:30:35 PM 43.6933 -86.7339 38° Northeast 458 527 22,900 -438 Descending Minneapolis Center
Fri 08:31:37 PM 43.7944 -86.6256 38° Northeast 459 528 22,300 -968 Descending Minneapolis Center
Fri 08:32:39 PM 43.8969 -86.5139 38° Northeast 467 537 20,900 -1,805 Descending Minneapolis Center
Fri 08:33:40 PM 43.9833 -86.4086 41° Northeast 419 482 18,600 -2,488 Descending Minneapolis Center
Fri 08:34:42 PM 44.0600 -86.3008 45° Northeast 393 452 15,800 -2,952 Descending Minneapolis Center
Fri 08:35:44 PM 44.1414 -86.1875 45° Northeast 383 441 12,500 -2,613 Descending Minneapolis Center
Fri 08:36:46 PM 44.2122 -86.0872 45° Northeast 369 425 10,400 -1,887 Descending Minneapolis Center
Fri 08:37:48 PM 44.2761 -85.9969 45° Northeast 336 387 8,600 -1,452 Descending Minneapolis Center
Fri 08:38:50 PM 44.3367 -85.9117 45° Northeast 316 364 7,400 -1,610 Descending Minneapolis Center
Fri 08:39:51 PM 44.4031 -85.8161 46° Northeast 295 339 5,300 -1,805 Descending Minneapolis Center
Fri 08:40:53 PM 44.4542 -85.7433 45° Northeast 274 315 3,700 -823 Descending Minneapolis Center
Fri 08:41:55 PM 44.4994 -85.6803 45° Northeast 244 281 3,600 -48 Descending Minneapolis Center
Fri 08:42:57 PM 44.5414 -85.6194 46° Northeast 223 257 3,600 -484 Level Minneapolis Center
Fri 08:44:00 PM 44.6347 -85.6022 42° Northeast  Level Estimated
Fri 08:45:01 PM 44.6561 -85.5881 42° Northeast 202 232 2,100  Level Minneapolis Center
Fri 08:46:02 PM 44.6967 -85.5872 North 174 200 1,400 -537 Descending Minneapolis Center
Fri 08:47:04 PM 44.7275 -85.5867 North 156 180 1,000 -387 Descending Minneapolis Center

Login

Don't have an account? Register now (free) for customized features, flight alerts, and more!